Time;durP1;ratioP1;P1;durP2;ratioP2;P2;SDS_P1;SDS_P2;PMS_P1;PMS_P2;Temp;Humidity;BMP_temperature;BMP_pressure;BME280_temperature;BME280_humidity;BME280_pressure;Samples;Min_cycle;Max_cycle;Signal;HPM_P1;HPM_P2
2021/10/18 00:02:12;;;;;;;10.43;8.02;;;10.90;99.90;;;;;;5071196;28;20044;-75
2021/10/18 00:04:38;;;;;;;11.90;8.48;;;10.90;99.90;;;;;;5070464;28;20052;-75
2021/10/18 00:07:05;;;;;;;10.32;8.30;;;10.80;99.90;;;;;;5100707;27;20407;-76
2021/10/18 00:09:31;;;;;;;10.13;8.00;;;10.80;99.90;;;;;;5097717;28;20059;-77
2021/10/18 00:11:57;;;;;;;13.45;8.10;;;10.80;99.90;;;;;;5100653;28;20059;-76
2021/10/18 00:14:24;;;;;;;13.02;7.88;;;10.80;99.90;;;;;;5063314;28;20036;-76
2021/10/18 00:16:50;;;;;;;11.60;7.95;;;10.80;99.90;;;;;;5087899;28;20040;-76
2021/10/18 00:19:19;;;;;;;10.23;7.72;;;10.80;99.90;;;;;;5071515;28;20035;-76
2021/10/18 00:21:46;;;;;;;10.35;7.72;;;10.80;99.90;;;;;;5055520;28;20043;-76
2021/10/18 00:24:12;;;;;;;10.80;7.43;;;10.70;99.90;;;;;;5072612;28;20043;-76
2021/10/18 00:26:40;;;;;;;9.07;7.82;;;10.70;99.90;;;;;;5068424;28;20055;-76
2021/10/18 00:29:07;;;;;;;9.63;7.30;;;10.70;99.90;;;;;;5072133;28;20523;-76
2021/10/18 00:31:33;;;;;;;10.90;8.40;;;10.70;99.90;;;;;;5071861;28;20032;-76
2021/10/18 00:34:00;;;;;;;13.75;8.75;;;10.70;99.90;;;;;;5109646;27;20042;-76
2021/10/18 00:36:26;;;;;;;9.77;7.05;;;10.60;99.90;;;;;;5099083;28;20032;-76
2021/10/18 00:38:53;;;;;;;9.82;7.25;;;10.60;99.90;;;;;;5086741;28;20038;-76
2021/10/18 00:41:20;;;;;;;11.07;8.10;;;10.60;99.90;;;;;;5098803;28;20043;-76
2021/10/18 00:43:49;;;;;;;13.68;8.73;;;10.60;99.90;;;;;;5099821;28;20035;-76
2021/10/18 00:46:23;;;;;;;10.52;7.35;;;10.60;99.90;;;;;;5087674;28;20042;-76
2021/10/18 00:48:52;;;;;;;11.10;7.93;;;10.70;99.90;;;;;;5087049;28;20043;-76
2021/10/18 00:51:21;;;;;;;11.05;7.90;;;10.70;99.90;;;;;;5092268;28;20043;-76
2021/10/18 00:53:49;;;;;;;9.32;7.70;;;10.60;99.90;;;;;;5073259;28;20042;-76
2021/10/18 00:56:16;;;;;;;11.18;8.75;;;10.60;99.90;;;;;;5086109;28;20393;-75
2021/10/18 00:58:43;;;;;;;14.38;8.68;;;10.60;99.90;;;;;;5068652;28;20062;-75
2021/10/18 01:01:11;;;;;;;12.45;9.00;;;10.60;99.90;;;;;;5103657;28;20031;-75
2021/10/18 01:03:37;;;;;;;8.88;7.63;;;10.60;99.90;;;;;;5089190;28;20468;-75
2021/10/18 01:06:03;;;;;;;11.73;7.53;;;10.50;99.90;;;;;;5067905;28;20522;-76
2021/10/18 01:08:30;;;;;;;10.20;7.82;;;10.50;99.90;;;;;;5087780;28;20050;-75
2021/10/18 01:10:57;;;;;;;11.52;8.02;;;10.40;99.90;;;;;;5104944;28;20035;-75
2021/10/18 01:13:23;;;;;;;12.52;8.52;;;10.40;99.90;;;;;;5072149;27;20505;-76
2021/10/18 01:15:50;;;;;;;10.60;7.90;;;10.30;99.90;;;;;;5111277;27;20036;-75
2021/10/18 01:18:16;;;;;;;10.20;8.10;;;10.20;99.90;;;;;;5041882;27;20047;-76
2021/10/18 01:20:43;;;;;;;11.52;8.25;;;10.20;99.90;;;;;;5077157;27;20062;-75
2021/10/18 01:23:11;;;;;;;11.15;7.78;;;10.20;99.90;;;;;;5082962;27;20039;-75
2021/10/18 01:25:38;;;;;;;13.80;8.35;;;10.10;99.90;;;;;;5089753;28;20036;-75
2021/10/18 01:28:05;;;;;;;10.57;8.55;;;10.10;99.90;;;;;;5071482;28;20051;-75
2021/10/18 01:30:32;;;;;;;9.88;7.40;;;10.00;99.90;;;;;;5104176;28;20035;-75
2021/10/18 01:32:59;;;;;;;12.20;8.18;;;10.00;99.90;;;;;;5104286;28;20031;-75
2021/10/18 01:35:26;;;;;;;10.73;8.20;;;10.00;99.90;;;;;;5065180;28;20039;-76
2021/10/18 01:37:52;;;;;;;11.18;8.25;;;10.00;99.90;;;;;;5054738;28;20043;-76
2021/10/18 01:40:21;;;;;;;11.93;8.30;;;10.00;99.90;;;;;;5086803;28;20043;-76
2021/10/18 01:42:48;;;;;;;11.68;8.25;;;9.90;99.90;;;;;;5103880;28;20040;-76
2021/10/18 01:45:16;;;;;;;10.65;9.13;;;9.90;99.90;;;;;;5069534;28;20035;-76
2021/10/18 01:47:43;;;;;;;11.52;9.15;;;9.90;99.90;;;;;;5070010;28;20044;-76
2021/10/18 01:50:12;;;;;;;11.85;8.75;;;9.90;99.90;;;;;;5087657;28;20040;-76
2021/10/18 01:52:38;;;;;;;14.18;10.13;;;9.90;99.90;;;;;;5087351;28;20854;-76
2021/10/18 01:55:05;;;;;;;11.43;8.77;;;9.90;99.90;;;;;;5052253;28;20489;-76
2021/10/18 01:57:32;;;;;;;14.40;9.32;;;10.00;99.90;;;;;;5070673;28;20530;-76
2021/10/18 01:59:59;;;;;;;11.05;8.27;;;9.90;99.90;;;;;;5069076;28;20593;-76
2021/10/18 02:02:25;;;;;;;9.95;7.88;;;9.90;99.90;;;;;;5069154;28;20046;-76
2021/10/18 02:04:52;;;;;;;12.55;8.82;;;9.90;99.90;;;;;;5069094;28;20051;-76
2021/10/18 02:07:18;;;;;;;11.85;8.93;;;9.90;99.90;;;;;;5070607;28;20032;-76
2021/10/18 02:09:44;;;;;;;11.20;8.55;;;9.90;99.90;;;;;;5088218;28;20042;-76
2021/10/18 02:12:11;;;;;;;15.80;8.73;;;9.90;99.90;;;;;;5090391;28;20039;-76
2021/10/18 02:14:37;;;;;;;12.55;9.73;;;10.00;99.90;;;;;;5108966;28;20032;-76
2021/10/18 02:17:03;;;;;;;13.00;9.70;;;10.00;99.90;;;;;;5106590;28;20032;-76
2021/10/18 02:19:30;;;;;;;13.13;8.77;;;10.00;99.90;;;;;;5073613;28;20053;-76
2021/10/18 02:21:56;;;;;;;11.45;8.30;;;10.00;99.90;;;;;;5075537;28;20507;-77
2021/10/18 02:24:23;;;;;;;11.40;9.50;;;10.00;99.90;;;;;;5091264;28;20027;-77
2021/10/18 02:26:49;;;;;;;12.13;9.73;;;10.10;99.90;;;;;;5112261;27;20591;-77
2021/10/18 02:29:16;;;;;;;11.20;8.98;;;10.10;99.90;;;;;;5088310;28;20380;-76
2021/10/18 02:31:42;;;;;;;11.73;9.00;;;10.10;99.90;;;;;;5098975;28;20032;-76
2021/10/18 02:34:08;;;;;;;13.52;9.30;;;10.10;99.90;;;;;;5071932;28;20039;-76
2021/10/18 02:36:36;;;;;;;11.13;8.30;;;10.10;99.90;;;;;;5082604;28;20031;-76
2021/10/18 02:39:03;;;;;;;11.18;9.38;;;10.10;99.90;;;;;;5050686;28;20047;-76
2021/10/18 02:41:29;;;;;;;11.02;9.52;;;10.10;99.90;;;;;;5085578;28;20043;-76
2021/10/18 02:43:56;;;;;;;13.82;10.57;;;10.10;99.90;;;;;;5072942;28;20039;-76
2021/10/18 02:46:22;;;;;;;13.40;10.50;;;10.10;99.90;;;;;;5080407;28;20058;-76
2021/10/18 02:48:49;;;;;;;13.05;10.60;;;10.10;99.90;;;;;;5090971;28;20048;-76
2021/10/18 02:51:16;;;;;;;13.20;9.70;;;10.00;99.90;;;;;;5074247;28;20046;-76
2021/10/18 02:53:42;;;;;;;13.00;9.05;;;10.00;99.90;;;;;;5072230;28;20028;-76
2021/10/18 02:56:09;;;;;;;14.35;9.85;;;10.00;99.90;;;;;;5087882;28;20042;-76
2021/10/18 02:58:35;;;;;;;11.68;9.07;;;10.00;99.90;;;;;;5107317;28;20042;-76
2021/10/18 03:01:02;;;;;;;12.65;10.65;;;10.00;99.90;;;;;;5090702;28;20035;-76
2021/10/18 03:03:28;;;;;;;11.75;9.45;;;10.00;99.90;;;;;;5106390;28;20047;-76
2021/10/18 03:05:54;;;;;;;10.77;9.32;;;10.00;99.90;;;;;;5090452;28;20047;-75
2021/10/18 03:08:22;;;;;;;13.40;9.25;;;9.90;99.90;;;;;;5073199;28;20051;-76
2021/10/18 03:10:48;;;;;;;12.57;9.02;;;9.90;99.90;;;;;;5068822;28;20044;-76
2021/10/18 03:13:16;;;;;;;10.88;9.77;;;9.90;99.90;;;;;;5051150;28;20039;-75
2021/10/18 03:15:44;;;;;;;12.13;9.80;;;9.90;99.90;;;;;;5097558;28;20790;-76
2021/10/18 03:18:10;;;;;;;12.75;9.13;;;9.90;99.90;;;;;;5099293;28;20027;-76
2021/10/18 03:20:37;;;;;;;12.05;9.48;;;9.80;99.90;;;;;;5113632;27;20407;-76
2021/10/18 03:23:04;;;;;;;12.70;8.85;;;9.80;99.90;;;;;;5112232;27;20058;-76
2021/10/18 03:25:34;;;;;;;12.65;9.25;;;9.80;99.90;;;;;;5112990;27;20031;-76
2021/10/18 03:28:05;;;;;;;10.52;8.25;;;9.80;99.90;;;;;;5098971;27;20039;-76
2021/10/18 03:30:31;;;;;;;14.40;10.15;;;9.80;99.90;;;;;;5112628;27;20414;-76
2021/10/18 03:32:58;;;;;;;13.43;9.77;;;9.70;99.90;;;;;;5128092;27;20042;-76
2021/10/18 03:35:24;;;;;;;13.02;10.15;;;9.70;99.90;;;;;;5112368;27;20042;-76
2021/10/18 03:37:51;;;;;;;11.57;9.45;;;9.70;99.90;;;;;;5115705;27;20044;-76
2021/10/18 03:40:22;;;;;;;12.40;9.98;;;9.70;99.90;;;;;;5109675;27;20039;-76
2021/10/18 03:42:48;;;;;;;13.52;9.52;;;9.60;99.90;;;;;;5078630;27;20039;-76
2021/10/18 03:45:15;;;;;;;12.02;8.35;;;9.60;99.90;;;;;;5111923;27;20049;-76
2021/10/18 03:47:41;;;;;;;12.27;9.73;;;9.50;99.90;;;;;;5095594;27;20064;-76
2021/10/18 03:50:09;;;;;;;12.77;8.85;;;9.50;99.90;;;;;;5110203;27;20043;-76
2021/10/18 03:52:35;;;;;;;14.90;9.50;;;9.40;99.90;;;;;;5110260;27;20035;-76
2021/10/18 03:55:03;;;;;;;12.68;9.68;;;9.30;99.90;;;;;;5093957;27;20031;-76
2021/10/18 03:57:29;;;;;;;12.45;9.73;;;9.30;99.90;;;;;;5100256;27;20151;-76
2021/10/18 03:59:55;;;;;;;10.82;9.63;;;9.30;99.90;;;;;;5111194;27;20039;-76
2021/10/18 04:02:22;;;;;;;13.27;10.18;;;9.20;99.90;;;;;;5124675;27;20050;-76
2021/10/18 04:04:49;;;;;;;10.60;9.02;;;9.10;99.90;;;;;;5087248;27;20121;-76
2021/10/18 04:07:15;;;;;;;11.50;8.68;;;9.10;99.90;;;;;;5132114;27;20039;-76
2021/10/18 04:09:45;;;;;;;12.27;9.10;;;9.00;99.90;;;;;;5110896;27;20050;-76
2021/10/18 04:12:12;;;;;;;12.10;8.98;;;9.00;99.90;;;;;;5109471;27;20027;-76
2021/10/18 04:14:38;;;;;;;11.13;8.25;;;9.00;99.90;;;;;;5091751;27;20087;-76
2021/10/18 04:17:05;;;;;;;10.63;8.60;;;8.90;99.90;;;;;;5091804;27;20048;-76
2021/10/18 04:19:32;;;;;;;12.30;9.68;;;8.80;99.90;;;;;;5108186;27;20685;-76
2021/10/18 04:21:58;;;;;;;11.52;9.48;;;8.80;99.90;;;;;;5092435;27;20495;-76
2021/10/18 04:24:24;;;;;;;10.98;8.93;;;8.80;99.90;;;;;;5110841;27;20054;-76
2021/10/18 04:26:51;;;;;;;11.52;8.75;;;8.70;99.90;;;;;;5122075;27;20422;-76
2021/10/18 04:29:17;;;;;;;12.18;9.98;;;8.70;99.90;;;;;;5092734;27;20039;-76
2021/10/18 04:31:43;;;;;;;11.98;9.82;;;8.60;99.90;;;;;;5106865;27;20054;-76
2021/10/18 04:34:10;;;;;;;12.43;9.88;;;8.60;99.90;;;;;;5123919;27;20388;-76
2021/10/18 04:36:37;;;;;;;12.63;9.82;;;8.60;99.90;;;;;;5112321;27;20594;-76
2021/10/18 04:39:04;;;;;;;12.82;10.02;;;8.50;99.90;;;;;;5092564;27;20040;-76
2021/10/18 04:41:30;;;;;;;14.63;10.32;;;8.50;99.90;;;;;;5091382;27;20046;-76
2021/10/18 04:43:56;;;;;;;14.18;10.90;;;8.50;99.90;;;;;;5064851;27;20031;-76
2021/10/18 04:46:23;;;;;;;13.13;10.20;;;8.40;99.90;;;;;;5126970;27;20035;-76
2021/10/18 04:48:49;;;;;;;11.10;8.88;;;8.40;99.90;;;;;;5093251;27;20046;-76
2021/10/18 04:51:16;;;;;;;14.35;10.02;;;8.40;99.90;;;;;;5082379;27;20401;-75
2021/10/18 04:53:42;;;;;;;12.82;9.70;;;8.30;99.90;;;;;;5081393;27;20046;-75
2021/10/18 04:56:08;;;;;;;11.80;8.68;;;8.30;99.90;;;;;;5079671;27;20388;-76
2021/10/18 04:58:35;;;;;;;12.98;9.98;;;8.30;99.90;;;;;;5076200;27;20388;-76
2021/10/18 05:01:01;;;;;;;12.02;9.52;;;8.30;99.90;;;;;;5110992;27;20035;-76
2021/10/18 05:03:28;;;;;;;10.80;8.68;;;8.20;99.90;;;;;;5097362;27;20039;-76
2021/10/18 05:05:54;;;;;;;13.77;9.55;;;8.20;99.90;;;;;;5110366;27;20055;-76
2021/10/18 05:08:22;;;;;;;11.93;8.13;;;8.20;99.90;;;;;;5124299;27;20055;-76
2021/10/18 05:10:48;;;;;;;11.95;9.13;;;8.10;99.90;;;;;;5093860;27;20056;-76
2021/10/18 05:13:15;;;;;;;14.75;9.57;;;8.10;99.90;;;;;;5092554;27;20038;-77
2021/10/18 05:15:42;;;;;;;15.25;10.40;;;8.10;99.90;;;;;;5098846;27;20572;-76
2021/10/18 05:18:08;;;;;;;11.88;9.45;;;8.00;99.90;;;;;;5129454;27;20042;-76
2021/10/18 05:20:35;;;;;;;14.43;10.68;;;8.00;99.90;;;;;;5091424;27;20046;-77
2021/10/18 05:23:02;;;;;;;15.10;10.52;;;8.00;99.90;;;;;;5089166;27;20040;-76
2021/10/18 05:25:29;;;;;;;12.52;8.93;;;8.00;99.90;;;;;;5080970;27;20035;-75
2021/10/18 05:27:56;;;;;;;14.43;10.55;;;8.00;99.90;;;;;;5126708;27;20515;-76
2021/10/18 05:30:26;;;;;;;15.00;10.80;;;7.90;99.90;;;;;;5109063;27;20048;-76
2021/10/18 05:32:53;;;;;;;20.73;15.07;;;7.90;99.90;;;;;;5091212;27;20038;-75
2021/10/18 05:35:20;;;;;;;22.50;17.13;;;7.90;99.90;;;;;;5126414;27;20027;-76
2021/10/18 05:37:48;;;;;;;20.38;13.77;;;7.90;99.90;;;;;;5073493;27;20039;-76
2021/10/18 05:40:15;;;;;;;19.63;12.73;;;8.00;99.90;;;;;;5106664;27;20035;-76
2021/10/18 05:42:42;;;;;;;22.13;16.13;;;8.00;99.90;;;;;;5088748;27;20038;-76
2021/10/18 05:45:09;;;;;;;23.73;16.20;;;8.00;99.90;;;;;;5060875;27;20030;-76
2021/10/18 05:47:59;;;;;;;21.98;17.05;;;8.10;99.90;;;;;;5091674;27;20027;-76
2021/10/18 05:50:28;;;;;;;18.45;15.35;;;8.10;99.90;;;;;;5101665;28;20036;-77
2021/10/18 05:52:55;;;;;;;18.48;13.25;;;8.20;99.90;;;;;;5089133;27;20035;-76
2021/10/18 05:55:22;;;;;;;19.08;13.25;;;8.10;99.90;;;;;;5122955;27;20031;-76
2021/10/18 05:57:52;;;;;;;16.20;11.75;;;8.20;99.90;;;;;;5089925;27;20038;-77
2021/10/18 06:00:20;;;;;;;13.23;11.32;;;8.20;99.90;;;;;;5087560;27;20023;-76
2021/10/18 06:02:46;;;;;;;12.45;9.43;;;8.10;99.90;;;;;;5103684;28;20035;-78
2021/10/18 06:05:13;;;;;;;13.10;10.65;;;8.20;99.90;;;;;;5086039;28;20504;-77
2021/10/18 06:07:39;;;;;;;14.93;10.77;;;8.20;99.90;;;;;;5101579;27;20039;-76
2021/10/18 06:10:08;;;;;;;12.90;9.75;;;8.20;99.90;;;;;;5084948;27;20484;-76
2021/10/18 06:12:35;;;;;;;13.95;10.82;;;8.20;99.90;;;;;;5101242;28;20046;-76
2021/10/18 06:15:02;;;;;;;16.20;11.77;;;8.20;99.90;;;;;;5103599;27;20038;-75
2021/10/18 06:17:28;;;;;;;16.95;11.32;;;8.20;99.90;;;;;;5121283;27;20027;-75
2021/10/18 06:19:55;;;;;;;15.63;10.63;;;8.20;99.90;;;;;;5087653;27;20039;-75
2021/10/18 06:22:21;;;;;;;15.50;11.05;;;8.30;99.90;;;;;;5106378;27;20039;-75
2021/10/18 06:24:50;;;;;;;15.27;11.73;;;8.30;99.90;;;;;;5117780;27;20038;-76
2021/10/18 06:27:17;;;;;;;14.43;11.05;;;8.30;99.90;;;;;;5115105;27;20032;-75
2021/10/18 06:29:43;;;;;;;16.42;11.60;;;8.30;99.90;;;;;;5088446;27;20038;-76
2021/10/18 06:32:10;;;;;;;15.73;11.73;;;8.40;99.90;;;;;;5117992;27;20044;-76
2021/10/18 06:34:37;;;;;;;15.05;11.38;;;8.40;99.90;;;;;;5103810;28;20039;-75
2021/10/18 06:37:03;;;;;;;14.02;11.43;;;8.40;99.90;;;;;;5103880;27;20042;-76
2021/10/18 06:39:30;;;;;;;15.93;11.52;;;8.50;99.90;;;;;;5117775;27;20028;-76
2021/10/18 06:41:56;;;;;;;13.95;10.68;;;8.50;99.90;;;;;;5105535;27;20355;-76
2021/10/18 06:44:22;;;;;;;14.90;11.10;;;8.50;99.90;;;;;;5081424;27;20040;-76
2021/10/18 06:46:49;;;;;;;15.63;11.65;;;8.60;99.90;;;;;;5121048;27;20028;-76
2021/10/18 06:49:15;;;;;;;17.58;12.70;;;8.60;99.90;;;;;;5117932;27;20047;-75
2021/10/18 06:51:51;;;;;;;18.45;12.98;;;8.60;99.90;;;;;;5108092;27;20043;-76
2021/10/18 06:54:19;;;;;;;17.95;13.88;;;8.70;99.90;;;;;;5118868;27;20035;-76
2021/10/18 06:56:45;;;;;;;14.55;10.98;;;8.80;99.90;;;;;;5122044;27;20034;-76
2021/10/18 06:59:13;;;;;;;20.90;13.88;;;8.80;99.90;;;;;;5122848;27;20035;-76
2021/10/18 07:01:39;;;;;;;18.25;12.25;;;8.80;99.90;;;;;;5110474;27;20042;-76
2021/10/18 07:04:07;;;;;;;17.35;13.18;;;8.90;99.90;;;;;;5112152;27;20042;-76
2021/10/18 07:06:34;;;;;;;19.05;13.07;;;8.90;99.90;;;;;;5123652;27;20133;-76
2021/10/18 07:09:02;;;;;;;17.75;14.07;;;9.00;99.90;;;;;;5093421;27;20081;-75
2021/10/18 07:11:29;;;;;;;17.08;13.07;;;9.00;99.90;;;;;;5095320;27;20411;-76
2021/10/18 07:13:55;;;;;;;17.90;14.38;;;9.10;99.90;;;;;;5121692;27;20038;-75
2021/10/18 07:16:22;;;;;;;20.23;14.23;;;9.10;99.90;;;;;;5123835;27;20388;-76
2021/10/18 07:18:48;;;;;;;19.15;14.65;;;9.20;99.90;;;;;;5117848;27;20024;-76
2021/10/18 07:21:15;;;;;;;19.27;14.48;;;9.30;99.90;;;;;;5113696;27;20514;-76
2021/10/18 07:23:41;;;;;;;18.42;14.05;;;9.30;99.90;;;;;;5109142;27;20053;-76
2021/10/18 07:26:08;;;;;;;23.38;16.42;;;9.30;99.90;;;;;;5111018;27;20309;-76
2021/10/18 07:28:36;;;;;;;22.45;14.88;;;9.40;99.90;;;;;;5092746;27;20031;-75
2021/10/18 07:31:02;;;;;;;25.20;15.32;;;9.40;99.90;;;;;;5093782;27;20038;-76
2021/10/18 07:33:29;;;;;;;20.33;16.20;;;9.50;99.90;;;;;;5107237;27;20034;-76
2021/10/18 07:35:56;;;;;;;22.17;16.77;;;9.50;99.90;;;;;;5119586;27;20039;-76
2021/10/18 07:38:24;;;;;;;24.13;17.00;;;9.60;99.90;;;;;;5092702;27;20040;-76
2021/10/18 07:40:51;;;;;;;23.75;16.35;;;9.70;99.90;;;;;;5121967;27;20605;-76
2021/10/18 07:43:17;;;;;;;21.05;15.52;;;9.80;99.90;;;;;;5088515;27;20042;-76
2021/10/18 07:45:44;;;;;;;22.08;15.60;;;9.80;99.90;;;;;;5124064;27;20058;-76
2021/10/18 07:48:10;;;;;;;18.35;13.57;;;9.90;99.90;;;;;;5114544;27;20495;-76
2021/10/18 07:50:37;;;;;;;20.92;15.25;;;10.00;99.90;;;;;;5122269;27;20035;-76
2021/10/18 07:53:03;;;;;;;19.35;13.82;;;10.10;99.90;;;;;;5110339;27;20039;-76
2021/10/18 07:55:33;;;;;;;18.15;14.13;;;10.20;99.90;;;;;;5099058;27;20042;-76
2021/10/18 07:58:00;;;;;;;20.73;15.25;;;10.20;99.90;;;;;;5098567;27;20373;-76
2021/10/18 08:00:26;;;;;;;17.50;13.52;;;10.30;99.90;;;;;;5125906;27;20033;-76
2021/10/18 08:02:53;;;;;;;22.23;14.95;;;10.40;99.90;;;;;;5115965;27;20031;-76
2021/10/18 08:05:19;;;;;;;19.48;14.45;;;10.50;99.90;;;;;;5096210;27;20393;-75
2021/10/18 08:07:51;;;;;;;20.45;14.35;;;10.60;99.90;;;;;;5079929;27;20053;-76
2021/10/18 08:10:23;;;;;;;16.98;13.32;;;10.70;99.90;;;;;;5119678;27;20046;-76
2021/10/18 08:12:50;;;;;;;22.13;15.73;;;10.80;99.90;;;;;;5098601;27;20396;-78
2021/10/18 08:15:17;;;;;;;16.85;12.18;;;10.90;99.90;;;;;;5125717;27;20031;-76
2021/10/18 08:17:43;;;;;;;17.35;12.68;;;11.00;99.90;;;;;;5093029;27;20039;-76
2021/10/18 08:20:10;;;;;;;17.02;13.52;;;11.00;99.90;;;;;;5087564;27;20036;-75
2021/10/18 08:22:36;;;;;;;18.98;14.05;;;11.10;99.90;;;;;;5124303;27;20038;-75
2021/10/18 08:25:03;;;;;;;20.50;13.95;;;11.20;99.90;;;;;;5123039;27;20638;-75
2021/10/18 08:27:30;;;;;;;15.88;12.38;;;11.30;99.90;;;;;;5126835;27;20030;-76
2021/10/18 08:29:57;;;;;;;16.17;12.70;;;11.40;99.90;;;;;;5107771;27;20531;-75
2021/10/18 08:32:23;;;;;;;16.67;13.00;;;11.50;99.90;;;;;;5106492;27;20035;-75
2021/10/18 08:34:49;;;;;;;15.45;11.32;;;11.50;99.90;;;;;;5125454;27;20034;-75
2021/10/18 08:37:16;;;;;;;19.17;12.65;;;11.50;99.90;;;;;;5124405;27;20035;-75
2021/10/18 08:42:26;;;;;;;16.35;12.40;;;11.60;99.90;;;;;;5112184;27;20399;-75
2021/10/18 08:44:52;;;;;;;14.85;10.95;;;11.60;99.90;;;;;;5107745;27;20051;-75
2021/10/18 08:47:24;;;;;;;15.85;11.48;;;11.70;99.90;;;;;;5114795;27;20022;-75
2021/10/18 08:49:50;;;;;;;15.70;11.70;;;11.80;99.90;;;;;;5091223;27;20036;-75
2021/10/18 08:52:20;;;;;;;18.20;12.43;;;11.90;99.90;;;;;;5119515;27;20042;-75
2021/10/18 08:54:46;;;;;;;17.98;12.80;;;12.00;99.90;;;;;;5093453;27;20035;-76
2021/10/18 08:57:13;;;;;;;16.42;11.77;;;12.10;99.90;;;;;;5096679;27;20027;-76
2021/10/18 08:59:39;;;;;;;13.30;10.90;;;12.20;99.90;;;;;;5108447;27;20515;-76
2021/10/18 09:02:06;;;;;;;17.98;13.10;;;12.30;99.90;;;;;;5095768;27;20050;-76
2021/10/18 09:04:39;;;;;;;16.48;12.52;;;12.40;99.90;;;;;;5094489;27;20057;-76
2021/10/18 09:07:15;;;;;;;15.27;12.30;;;12.60;99.90;;;;;;5125816;27;20046;-75
2021/10/18 09:09:51;;;;;;;16.48;11.77;;;12.60;99.90;;;;;;5124737;27;20085;-76
2021/10/18 09:12:29;;;;;;;15.45;11.27;;;12.70;99.90;;;;;;5103056;27;20035;-75
2021/10/18 09:15:21;;;;;;;14.25;11.45;;;12.80;99.90;;;;;;5087205;28;20027;-76
2021/10/18 09:18:06;;;;;;;12.68;10.20;;;12.90;99.90;;;;;;5101020;27;20035;-76
2021/10/18 09:20:35;;;;;;;13.50;9.80;;;13.10;99.90;;;;;;5118035;27;20038;-76
2021/10/18 09:23:23;;;;;;;14.35;12.85;;;13.20;99.90;;;;;;5104600;27;20031;-75
2021/10/18 09:25:52;;;;;;;15.40;11.48;;;13.30;99.90;;;;;;5105320;27;20023;-75
2021/10/18 09:28:26;;;;;;;14.70;10.73;;;13.50;99.90;;;;;;5121938;27;20369;-75
2021/10/18 09:30:54;;;;;;;18.02;12.77;;;13.60;99.90;;;;;;5119335;27;20027;-76
2021/10/18 09:33:36;;;;;;;15.40;11.15;;;13.60;99.90;;;;;;5103284;27;20054;-75
2021/10/18 09:36:06;;;;;;;12.75;11.00;;;13.70;99.90;;;;;;5122818;27;20028;-75
2021/10/18 09:38:33;;;;;;;13.57;11.32;;;13.70;99.90;;;;;;5121410;27;20039;-76
2021/10/18 09:41:01;;;;;;;15.07;12.48;;;13.80;99.90;;;;;;5124253;27;20039;-75
2021/10/18 09:46:50;;;;;;;14.57;10.93;;;13.90;99.90;;;;;;5128319;27;20027;-75
2021/10/18 10:51:27;;;;;;;12.38;10.32;;;15.90;99.90;;;;;;5115367;27;20042;-76
2021/10/18 10:53:58;;;;;;;13.85;11.27;;;16.00;99.90;;;;;;5129579;27;20392;-76
2021/10/18 10:56:28;;;;;;;10.93;9.48;;;16.00;99.90;;;;;;5115192;27;20479;-74
2021/10/18 10:59:19;;;;;;;10.27;8.02;;;16.20;99.90;;;;;;5123587;27;20398;-75
2021/10/18 11:02:09;;;;;;;14.02;9.63;;;16.30;99.90;;;;;;5108729;27;20035;-75
2021/10/18 11:04:35;;;;;;;14.40;9.32;;;16.50;99.90;;;;;;5124154;27;20031;-75
2021/10/18 11:07:11;;;;;;;10.27;8.43;;;16.60;99.90;;;;;;5130867;27;20031;-75
2021/10/18 11:09:41;;;;;;;13.63;10.73;;;16.80;99.90;;;;;;5110664;27;20045;-75
2021/10/18 11:12:19;;;;;;;11.90;9.48;;;17.10;99.90;;;;;;5119993;27;20042;-75
2021/10/18 11:14:57;;;;;;;13.70;10.95;;;17.40;99.40;;;;;;5112391;27;20058;-75
2021/10/18 11:17:26;;;;;;;13.20;10.45;;;17.50;98.40;;;;;;5120957;27;20046;-75
2021/10/18 11:20:02;;;;;;;12.13;9.90;;;17.40;98.00;;;;;;5119801;27;20485;-75
2021/10/18 11:22:40;;;;;;;12.93;10.38;;;17.30;97.80;;;;;;5112911;27;20036;-75
2021/10/18 11:25:21;;;;;;;11.40;8.93;;;17.10;97.90;;;;;;5093223;27;20046;-75
2021/10/18 11:27:55;;;;;;;13.13;10.70;;;17.00;98.00;;;;;;5121405;27;20054;-74
2021/10/18 11:30:23;;;;;;;12.90;11.27;;;17.00;97.80;;;;;;5111948;27;20039;-75
2021/10/18 11:33:03;;;;;;;13.68;11.05;;;16.90;97.70;;;;;;5115170;27;20496;-77
2021/10/18 11:35:34;;;;;;;12.10;8.52;;;16.70;97.50;;;;;;5110101;27;20396;-77
2021/10/18 11:38:09;;;;;;;16.88;12.45;;;16.60;97.90;;;;;;5112053;27;20031;-77
2021/10/18 11:40:36;;;;;;;13.38;9.00;;;16.60;97.90;;;;;;5112144;27;20069;-77
2021/10/18 11:43:09;;;;;;;14.65;11.57;;;16.70;98.10;;;;;;5119834;27;20711;-78
2021/10/18 11:45:39;;;;;;;13.30;11.13;;;16.90;97.90;;;;;;5075568;27;20035;-78
2021/10/18 11:48:16;;;;;;;14.50;12.38;;;17.10;97.70;;;;;;5113349;27;20044;-78
2021/10/18 11:50:45;;;;;;;14.50;11.40;;;17.20;97.50;;;;;;5122285;27;20502;-77
2021/10/18 11:53:17;;;;;;;13.85;11.48;;;17.50;97.50;;;;;;5122693;27;20043;-78
2021/10/18 11:55:46;;;;;;;13.35;10.82;;;17.60;96.50;;;;;;5113057;27;20035;-78
2021/10/18 11:58:18;;;;;;;15.23;12.15;;;17.60;96.50;;;;;;5110463;27;20034;-76
2021/10/18 12:00:44;;;;;;;13.63;11.37;;;17.60;96.60;;;;;;5108721;27;20046;-78
2021/10/18 12:03:17;;;;;;;13.93;10.82;;;17.70;96.20;;;;;;5110791;27;20042;-77
2021/10/18 12:05:43;;;;;;;;;;;17.60;96.10;;;;;;5091532;27;20060;-77
2021/10/18 12:08:11;;;;;;;10.00;8.50;;;17.50;96.30;;;;;;5122080;27;19911;-77
2021/10/18 12:10:39;;;;;;;13.25;8.98;;;17.60;96.50;;;;;;5112715;27;20039;-77
2021/10/18 12:13:28;;;;;;;13.43;10.00;;;17.70;96.50;;;;;;5109896;27;20085;-78
2021/10/18 12:15:57;;;;;;;12.55;9.38;;;17.90;96.30;;;;;;5111299;27;20031;-78
2021/10/18 12:18:31;;;;;;;10.63;9.10;;;18.00;96.40;;;;;;5113121;27;20488;-78
2021/10/18 12:21:04;;;;;;;12.20;9.05;;;18.10;96.10;;;;;;5111910;27;20047;-77
2021/10/18 12:23:33;;;;;;;12.80;9.90;;;18.10;96.00;;;;;;5108122;27;20042;-77
2021/10/18 12:26:04;;;;;;;13.25;9.82;;;18.10;95.90;;;;;;5099502;27;20039;-78
2021/10/18 12:28:43;;;;;;;10.43;8.38;;;18.10;95.90;;;;;;5116038;27;20446;-77
2021/10/18 12:31:27;;;;;;;11.77;10.23;;;18.00;96.00;;;;;;5121350;27;20511;-77
2021/10/18 12:34:15;;;;;;;11.95;8.70;;;18.00;96.00;;;;;;5094554;27;20053;-78
2021/10/18 12:37:05;;;;;;;14.52;10.93;;;17.80;96.10;;;;;;5121270;27;20037;-77
2021/10/18 12:39:38;;;;;;;11.70;9.35;;;17.60;95.80;;;;;;5092947;27;20034;-78
2021/10/18 12:42:27;;;;;;;13.88;10.38;;;17.40;96.10;;;;;;5111691;27;20039;-77
2021/10/18 12:45:16;;;;;;;15.20;11.70;;;17.30;96.10;;;;;;5108986;27;20597;-77
2021/10/18 12:47:54;;;;;;;14.45;12.07;;;17.20;96.50;;;;;;5111876;27;20039;-77
2021/10/18 12:50:24;;;;;;;12.75;10.13;;;17.10;96.10;;;;;;5095061;27;20045;-76
2021/10/18 12:52:51;;;;;;;17.88;14.07;;;17.00;96.20;;;;;;5124358;27;20035;-77
2021/10/18 12:55:20;;;;;;;14.57;11.40;;;16.90;96.40;;;;;;5097204;27;20049;-77
2021/10/18 12:57:55;;;;;;;11.50;9.93;;;16.90;96.30;;;;;;5121537;27;20036;-77
2021/10/18 13:00:37;;;;;;;12.52;9.88;;;16.80;96.40;;;;;;5122269;27;20034;-78
2021/10/18 13:03:06;;;;;;;10.38;7.93;;;16.80;96.40;;;;;;5111966;27;20420;-77
2021/10/18 13:05:50;;;;;;;11.35;8.52;;;16.70;96.50;;;;;;5117695;27;20054;-77
2021/10/18 13:08:20;;;;;;;15.07;10.05;;;16.70;96.50;;;;;;5125705;27;20041;-78
2021/10/18 13:10:52;;;;;;;15.82;11.85;;;16.70;96.70;;;;;;5075045;27;20032;-76
2021/10/18 13:13:21;;;;;;;13.10;10.57;;;16.70;96.70;;;;;;5122696;27;20038;-77
2021/10/18 13:15:49;;;;;;;11.90;9.50;;;16.80;96.90;;;;;;5090995;27;20031;-77
2021/10/18 13:18:17;;;;;;;12.68;10.77;;;16.80;96.90;;;;;;5122244;27;20043;-77
2021/10/18 13:20:44;;;;;;;14.00;10.35;;;16.90;97.00;;;;;;5122260;27;20035;-78
2021/10/18 13:23:14;;;;;;;11.60;8.57;;;16.90;96.90;;;;;;5124647;27;20046;-78
2021/10/18 13:25:43;;;;;;;10.18;7.78;;;16.90;96.90;;;;;;5109083;27;20046;-77
2021/10/18 13:28:12;;;;;;;8.70;7.32;;;16.90;97.00;;;;;;5123665;27;20042;-77
2021/10/18 13:30:39;;;;;;;10.02;7.65;;;16.90;97.10;;;;;;5128172;27;20482;-77
2021/10/18 13:33:05;;;;;;;13.88;10.35;;;17.00;97.20;;;;;;5125466;27;20400;-77
2021/10/18 13:35:33;;;;;;;11.55;8.63;;;17.00;97.00;;;;;;5111720;27;20368;-76
2021/10/18 13:38:00;;;;;;;9.98;7.70;;;17.00;97.00;;;;;;5111712;27;20035;-76
2021/10/18 13:40:29;;;;;;;11.45;9.30;;;17.10;97.10;;;;;;5105946;27;20039;-76
2021/10/18 13:42:56;;;;;;;8.50;7.50;;;17.10;97.10;;;;;;5093018;27;20594;-76
2021/10/18 13:45:23;;;;;;;9.75;8.50;;;17.10;97.10;;;;;;5077730;27;20031;-80
2021/10/18 13:47:51;;;;;;;11.15;8.80;;;17.20;97.20;;;;;;5097592;27;20054;-80
2021/10/18 13:50:19;;;;;;;15.63;10.30;;;17.20;97.20;;;;;;5109121;27;20038;-78
2021/10/18 13:52:52;;;;;;;10.82;9.30;;;17.20;97.20;;;;;;5089496;27;20035;-79